createdAt,value
2022-11-27T00:00:22.150Z,17.00
2022-11-27T00:05:56.229Z,17.27
2022-11-27T00:11:05.231Z,18.03
2022-11-27T00:16:08.784Z,17.63
2022-11-27T00:21:14.511Z,17.33
2022-11-27T00:26:17.477Z,17.37
2022-11-27T05:34:41.739Z,20.67
2022-11-27T05:39:44.829Z,19.23
2022-11-27T05:44:48.087Z,19.43
2022-11-27T05:49:51.163Z,20.20
2022-11-27T05:54:55.067Z,19.53
2022-11-27T05:59:58.702Z,18.23
2022-11-27T06:05:01.922Z,19.03
2022-11-27T06:10:05.546Z,19.40
2022-11-27T06:15:09.177Z,19.67
2022-11-27T06:20:12.665Z,19.03
2022-11-27T06:25:16.069Z,19.53
2022-11-27T06:30:19.560Z,19.93
2022-11-27T06:35:23.062Z,21.37
2022-11-27T06:40:26.375Z,21.83
2022-11-27T06:45:29.798Z,21.30
2022-11-27T06:50:32.997Z,23.07
2022-11-27T06:55:38.961Z,25.57
2022-11-27T07:00:42.594Z,24.73
2022-11-27T07:05:46.012Z,23.63
2022-11-27T07:10:49.481Z,24.00
2022-11-27T07:15:52.773Z,23.50
2022-11-27T07:20:56.845Z,23.63
2022-11-27T07:26:05.054Z,24.40
2022-11-27T07:31:08.424Z,26.17
2022-11-27T07:36:18.120Z,25.47
2022-11-27T07:41:21.636Z,24.07
2022-11-27T07:46:25.779Z,22.43
2022-11-27T07:51:29.101Z,22.03
2022-11-27T07:56:32.297Z,22.33
2022-11-27T08:01:35.972Z,21.33
2022-11-27T08:06:39.322Z,22.53
2022-11-27T08:11:42.311Z,20.80
2022-11-27T08:16:45.210Z,17.40
2022-11-27T08:21:48.347Z,16.37
2022-11-27T08:26:52.409Z,15.87
2022-11-27T08:31:55.670Z,15.53
2022-11-27T08:36:59.216Z,13.77
2022-11-27T08:42:02.571Z,13.00
2022-11-27T08:47:05.743Z,13.93
2022-11-27T08:52:08.808Z,13.67
2022-11-27T08:57:12.298Z,10.27
2022-11-27T09:02:15.521Z,10.70
2022-11-27T09:07:18.475Z,10.47
2022-11-27T09:12:22.162Z,10.70
2022-11-27T09:17:25.084Z,9.87
2022-11-27T09:22:28.151Z,9.80
2022-11-27T09:27:30.970Z,9.20
2022-11-27T09:32:33.859Z,9.40
2022-11-27T09:37:36.679Z,10.10
2022-11-27T09:42:48.851Z,11.83
2022-11-27T09:48:01.892Z,12.87
2022-11-27T09:53:24.604Z,12.00
2022-11-27T09:58:41.218Z,15.07
2022-11-27T10:03:45.465Z,12.90
2022-11-27T10:08:52.104Z,10.93
2022-11-27T10:14:25.954Z,11.47
2022-11-27T10:19:47.188Z,11.47
2022-11-27T10:25:03.869Z,13.43
2022-11-27T10:30:18.917Z,10.40
2022-11-27T10:35:25.209Z,11.33
2022-11-27T10:40:51.028Z,10.97
2022-11-27T10:46:04.131Z,10.73
2022-11-27T10:51:24.901Z,10.90
2022-11-27T10:56:56.445Z,11.13
2022-11-27T11:02:01.264Z,11.20
2022-11-27T11:07:04.366Z,10.67
2022-11-27T11:12:21.122Z,10.50
2022-11-27T11:17:34.271Z,9.83
2022-11-27T11:22:37.244Z,7.60
2022-11-27T11:27:44.135Z,9.70
2022-11-27T11:32:49.503Z,10.90
2022-11-27T11:37:53.096Z,11.53
2022-11-27T11:42:58.321Z,10.90
2022-11-27T11:48:03.355Z,10.27
2022-11-27T11:53:31.256Z,10.70
2022-11-27T11:59:05.656Z,7.77
2022-11-27T12:04:45.086Z,8.27
2022-11-27T12:10:26.059Z,8.40
2022-11-27T12:16:19.804Z,6.63
2022-11-27T12:21:35.541Z,5.83
2022-11-27T12:27:20.681Z,6.03
2022-11-27T12:32:48.571Z,4.97
2022-11-27T12:38:28.984Z,4.87
2022-11-27T12:43:36.244Z,5.70
2022-11-27T12:48:52.175Z,4.80
2022-11-27T12:53:59.653Z,4.20
2022-11-27T12:59:35.665Z,3.73
2022-11-27T13:05:07.094Z,4.03
2022-11-27T13:10:21.838Z,4.97
2022-11-27T13:15:52.699Z,5.67
2022-11-27T13:20:56.357Z,6.70
2022-11-27T13:26:00.333Z,7.27
2022-11-27T13:31:03.808Z,8.47
2022-11-27T13:36:09.065Z,8.70
2022-11-27T13:41:21.875Z,7.17
2022-11-27T13:46:27.724Z,6.20
2022-11-27T13:51:33.725Z,5.50
2022-11-27T13:56:41.084Z,5.57
2022-11-27T14:01:58.338Z,6.60
2022-11-27T14:07:07.179Z,6.87
2022-11-27T14:12:31.973Z,7.63
2022-11-27T14:17:41.183Z,7.40
2022-11-27T14:23:10.095Z,7.70
2022-11-27T14:28:22.033Z,6.83
2022-11-27T14:33:59.594Z,8.40
2022-11-27T14:38:59.373Z,8.50
2022-11-27T14:44:07.828Z,7.77
2022-11-27T14:49:30.817Z,9.10
2022-11-27T14:54:43.605Z,8.20
2022-11-27T14:59:46.881Z,8.80
2022-11-27T15:04:50.193Z,8.27
2022-11-27T15:09:56.170Z,9.30
2022-11-27T15:15:30.887Z,9.83
2022-11-27T15:20:45.310Z,10.03
2022-11-27T15:26:15.947Z,10.17
2022-11-27T15:31:33.817Z,11.00
2022-11-27T15:36:38.328Z,9.80
2022-11-27T15:42:09.693Z,10.00
2022-11-27T15:47:32.649Z,10.57
2022-11-27T15:52:38.950Z,11.80
2022-11-27T15:57:42.976Z,12.20
2022-11-27T16:02:49.417Z,12.20
2022-11-27T16:07:55.388Z,14.70
2022-11-27T16:12:59.400Z,19.60
2022-11-27T16:18:02.645Z,20.03
2022-11-27T16:23:05.601Z,19.90
2022-11-27T16:28:08.563Z,21.20
2022-11-27T16:33:12.010Z,19.07
2022-11-27T16:38:15.284Z,17.57
2022-11-27T16:43:18.266Z,15.17
2022-11-27T16:48:21.330Z,12.63
2022-11-27T16:53:24.315Z,14.53
2022-11-27T16:58:27.529Z,16.10
2022-11-27T17:03:30.295Z,14.37
2022-11-27T17:08:33.155Z,16.00
2022-11-27T17:13:36.087Z,15.70
2022-11-27T17:18:40.368Z,15.70
2022-11-27T17:23:46.737Z,15.70
2022-11-27T17:28:50.018Z,14.90
2022-11-27T17:33:56.999Z,17.13
2022-11-27T17:39:02.893Z,17.33
2022-11-27T17:44:06.651Z,17.77
2022-11-27T17:49:10.558Z,17.37
2022-11-27T17:54:13.810Z,17.77
2022-11-27T17:59:18.044Z,17.63
2022-11-27T18:04:21.163Z,18.30
2022-11-27T18:09:24.346Z,20.03
2022-11-27T18:14:27.600Z,20.07
2022-11-27T18:19:31.846Z,21.63
2022-11-27T18:24:36.082Z,20.37
2022-11-27T18:29:45.783Z,20.33
2022-11-27T18:34:54.330Z,22.20
2022-11-27T18:39:57.466Z,23.63
2022-11-27T18:45:00.708Z,27.07
2022-11-27T18:50:04.455Z,26.43
2022-11-27T18:55:07.680Z,28.87
2022-11-27T19:00:11.464Z,29.73
2022-11-27T19:05:14.922Z,34.43
2022-11-27T19:10:18.657Z,41.30
2022-11-27T19:15:21.532Z,41.50
2022-11-27T19:20:24.793Z,37.07
2022-11-27T19:25:28.083Z,34.97
2022-11-27T19:30:34.017Z,34.50
2022-11-27T19:35:37.715Z,29.17
2022-11-27T19:40:41.659Z,31.33
2022-11-27T19:45:44.855Z,30.60
2022-11-27T19:50:48.332Z,30.50
2022-11-27T19:55:55.465Z,30.70
2022-11-27T20:01:15.860Z,30.20
2022-11-27T20:06:21.488Z,28.73
2022-11-27T20:11:26.686Z,25.17
2022-11-27T20:16:33.719Z,26.07
2022-11-27T20:21:37.675Z,24.40
2022-11-27T20:26:42.839Z,25.60
2022-11-27T20:31:46.502Z,25.83
2022-11-27T20:36:50.045Z,23.80
2022-11-27T20:41:53.678Z,22.47
2022-11-27T20:47:03.262Z,25.17
2022-11-27T20:52:06.630Z,28.07
2022-11-27T20:57:14.272Z,25.23
2022-11-27T21:02:17.754Z,24.03
2022-11-27T21:07:21.721Z,25.83
2022-11-27T21:12:24.950Z,24.23
2022-11-27T21:17:28.203Z,28.33
2022-11-27T21:22:32.149Z,31.57
2022-11-27T21:27:37.366Z,32.87
2022-11-27T21:32:40.505Z,27.97
2022-11-27T21:37:44.119Z,28.47
2022-11-27T21:42:47.343Z,27.40
2022-11-27T21:47:50.554Z,29.37
2022-11-27T21:52:53.809Z,37.07
2022-11-27T21:57:57.002Z,37.63
2022-11-27T22:03:00.235Z,38.13
2022-11-27T22:08:03.608Z,34.40
2022-11-27T22:13:07.005Z,28.13
2022-11-27T22:18:11.934Z,24.77
2022-11-27T22:23:15.285Z,26.30
2022-11-27T22:28:18.469Z,28.37
2022-11-27T22:33:21.775Z,25.43
2022-11-27T22:38:24.999Z,28.57
2022-11-27T22:43:28.260Z,30.30
2022-11-27T22:48:31.508Z,33.20
2022-11-27T22:53:35.012Z,30.63
2022-11-27T22:58:41.646Z,31.20
2022-11-27T23:03:45.505Z,31.87
2022-11-27T23:08:49.552Z,31.20
2022-11-27T23:13:54.764Z,32.47
2022-11-27T23:18:57.990Z,30.67
2022-11-27T23:24:01.283Z,27.23
2022-11-27T23:29:04.798Z,26.63
2022-11-27T23:34:13.215Z,28.20
2022-11-27T23:39:17.097Z,25.60
2022-11-27T23:44:21.023Z,25.23
2022-11-27T23:49:24.160Z,23.37
2022-11-27T23:54:26.985Z,24.23
2022-11-27T23:59:29.790Z,22.83
